Time;durP1;ratioP1;P1;durP2;ratioP2;P2;SDS_P1;SDS_P2;PMS_P1;PMS_P2;Temp;Humidity;BMP_temperature;BMP_pressure;BME280_temperature;BME280_humidity;BME280_pressure;Samples;Min_cycle;Max_cycle;Signal;HPM_P1;HPM_P2
2023/11/03 00:01:51;;;;;;;1.53;0.30;;;9.60;99.90;;;;;;5039200;28;20040;-54
2023/11/03 00:04:16;;;;;;;4.30;0.70;;;9.60;99.90;;;;;;5038928;28;20037;-54
2023/11/03 00:06:45;;;;;;;2.10;0.50;;;9.60;99.90;;;;;;5020981;28;20024;-54
2023/11/03 00:09:14;;;;;;;2.65;0.52;;;9.60;99.90;;;;;;5038236;28;20120;-53
2023/11/03 00:11:41;;;;;;;1.52;0.50;;;9.70;99.90;;;;;;5038370;28;20092;-54
2023/11/03 00:14:07;;;;;;;4.23;0.90;;;9.70;99.90;;;;;;5038567;28;20177;-56
2023/11/03 00:16:32;;;;;;;1.90;0.40;;;9.80;99.90;;;;;;5038201;28;20026;-54
2023/11/03 00:19:00;;;;;;;3.60;0.50;;;9.80;99.90;;;;;;5037748;28;20188;-55
2023/11/03 00:21:28;;;;;;;2.63;0.53;;;9.90;99.90;;;;;;5038491;28;20108;-53
2023/11/03 00:23:54;;;;;;;0.22;0.20;;;9.90;99.90;;;;;;5038017;28;20033;-54
2023/11/03 00:26:20;;;;;;;2.03;0.40;;;9.90;99.90;;;;;;5037990;28;20036;-52
2023/11/03 00:28:49;;;;;;;5.20;1.00;;;9.90;99.90;;;;;;5037725;28;20033;-53
2023/11/03 00:31:18;;;;;;;1.70;0.47;;;10.00;99.90;;;;;;5038026;28;20030;-53
2023/11/03 00:33:44;;;;;;;8.47;0.83;;;10.00;99.90;;;;;;5020123;28;20039;-53
2023/11/03 00:36:14;;;;;;;3.73;0.40;;;10.00;99.90;;;;;;5037036;28;20037;-55
2023/11/03 00:38:46;;;;;;;3.60;0.60;;;10.00;99.90;;;;;;5036953;28;20537;-54
2023/11/03 00:41:14;;;;;;;1.63;0.30;;;10.10;99.90;;;;;;5038081;28;20445;-54
2023/11/03 00:43:50;;;;;;;4.43;0.50;;;10.10;99.90;;;;;;5019919;28;20124;-53
2023/11/03 00:46:16;;;;;;;1.53;0.40;;;10.10;99.90;;;;;;5019475;28;20038;-51
2023/11/03 00:48:43;;;;;;;0.70;0.30;;;10.10;99.90;;;;;;5037480;28;20052;-52
2023/11/03 00:51:10;;;;;;;1.87;0.60;;;10.20;99.90;;;;;;5037188;28;20025;-55
2023/11/03 00:53:36;;;;;;;3.20;0.40;;;10.10;99.90;;;;;;5020101;28;20029;-54
2023/11/03 00:56:04;;;;;;;2.30;0.50;;;10.20;99.90;;;;;;5037286;28;20033;-51
2023/11/03 00:58:30;;;;;;;2.33;1.00;;;10.20;99.90;;;;;;5036632;28;20468;-54
2023/11/03 01:00:56;;;;;;;2.77;0.40;;;10.20;99.90;;;;;;5019535;28;20061;-50
2023/11/03 01:03:23;;;;;;;6.77;0.60;;;10.20;99.90;;;;;;5019354;28;20044;-52
2023/11/03 01:05:49;;;;;;;1.97;0.50;;;10.20;99.90;;;;;;5037626;28;20036;-54
2023/11/03 01:08:15;;;;;;;4.67;0.47;;;10.20;99.90;;;;;;5018999;28;20037;-54
2023/11/03 01:10:41;;;;;;;1.83;0.30;;;10.20;99.90;;;;;;5019061;28;20043;-54
2023/11/03 01:13:10;;;;;;;4.47;0.80;;;10.20;99.90;;;;;;5018847;28;20026;-55
2023/11/03 01:15:36;;;;;;;3.88;0.60;;;10.30;99.90;;;;;;5036838;28;20031;-51
2023/11/03 01:18:04;;;;;;;1.80;0.57;;;10.20;99.90;;;;;;5002319;28;20481;-51
2023/11/03 01:20:30;;;;;;;7.17;0.87;;;10.20;99.90;;;;;;5018879;28;20037;-54
2023/11/03 01:22:57;;;;;;;1.67;0.43;;;10.30;99.90;;;;;;5018839;28;20048;-55
2023/11/03 01:25:22;;;;;;;2.87;0.50;;;10.30;99.90;;;;;;5018349;28;20497;-53
2023/11/03 01:27:50;;;;;;;2.10;0.43;;;10.20;99.90;;;;;;5018557;28;20030;-55
2023/11/03 01:30:20;;;;;;;2.00;0.40;;;10.20;99.90;;;;;;5018830;28;20026;-54
2023/11/03 01:32:46;;;;;;;3.03;0.50;;;10.20;99.90;;;;;;5036202;28;20037;-53
2023/11/03 01:35:12;;;;;;;0.60;0.33;;;10.20;99.90;;;;;;5035805;28;20124;-55
2023/11/03 01:37:39;;;;;;;0.50;0.23;;;10.20;99.90;;;;;;5036098;28;20037;-54
2023/11/03 01:40:08;;;;;;;1.97;0.30;;;10.30;99.90;;;;;;5018494;28;20409;-54
2023/11/03 01:42:37;;;;;;;1.17;0.50;;;10.30;99.90;;;;;;5036288;28;20030;-55
2023/11/03 01:45:04;;;;;;;1.02;0.30;;;10.30;99.90;;;;;;5017858;28;20557;-55
2023/11/03 01:47:31;;;;;;;2.90;0.40;;;10.30;99.90;;;;;;5017072;28;20449;-53
2023/11/03 01:49:57;;;;;;;1.33;0.40;;;10.30;99.90;;;;;;5018552;28;20026;-55
2023/11/03 01:52:25;;;;;;;1.03;0.27;;;10.20;99.90;;;;;;5018455;28;20091;-52
2023/11/03 01:54:51;;;;;;;1.50;0.47;;;10.20;99.90;;;;;;5018146;28;20392;-54
2023/11/03 01:57:18;;;;;;;1.13;0.37;;;10.20;99.90;;;;;;5017885;28;20124;-54
2023/11/03 01:59:47;;;;;;;3.07;0.70;;;10.20;99.90;;;;;;5017520;28;20030;-53
2023/11/03 02:02:14;;;;;;;1.48;0.30;;;10.20;99.90;;;;;;5018309;28;20034;-54
2023/11/03 02:04:40;;;;;;;1.40;0.40;;;10.20;99.90;;;;;;5017417;28;20045;-52
2023/11/03 02:07:06;;;;;;;3.43;0.50;;;10.30;99.90;;;;;;5017777;28;20025;-54
2023/11/03 02:09:33;;;;;;;0.20;0.20;;;10.30;99.90;;;;;;5017211;28;20025;-55
2023/11/03 02:11:58;;;;;;;2.47;0.40;;;10.20;99.90;;;;;;5017758;28;20052;-54
2023/11/03 02:14:24;;;;;;;2.90;0.50;;;10.20;99.90;;;;;;5017254;28;20029;-54
2023/11/03 02:16:50;;;;;;;1.47;0.30;;;10.20;99.90;;;;;;5035315;28;20478;-53
2023/11/03 02:19:16;;;;;;;2.23;0.30;;;10.20;99.90;;;;;;5034786;28;20029;-55
2023/11/03 02:21:43;;;;;;;2.80;0.57;;;10.20;99.90;;;;;;5035398;28;20048;-55
2023/11/03 02:24:09;;;;;;;1.57;0.40;;;10.20;99.90;;;;;;5017801;28;20099;-55
2023/11/03 02:26:35;;;;;;;0.50;0.40;;;10.20;99.90;;;;;;5016691;28;20034;-54
2023/11/03 02:29:03;;;;;;;1.53;0.90;;;10.20;99.90;;;;;;5017433;28;20037;-55
2023/11/03 02:31:30;;;;;;;2.60;0.23;;;10.20;99.90;;;;;;5036171;28;20033;-54
2023/11/03 02:33:56;;;;;;;2.20;0.40;;;10.20;99.90;;;;;;5036124;28;20033;-51
2023/11/03 02:36:23;;;;;;;2.57;0.40;;;10.20;99.90;;;;;;5018193;28;20041;-55
2023/11/03 02:38:49;;;;;;;2.07;0.40;;;10.20;99.90;;;;;;5017900;28;20457;-54
2023/11/03 02:41:15;;;;;;;1.23;0.23;;;10.20;99.90;;;;;;5018153;28;20021;-55
2023/11/03 02:43:41;;;;;;;4.60;0.93;;;10.20;99.90;;;;;;5035973;28;20395;-53
2023/11/03 02:46:07;;;;;;;1.87;0.40;;;10.20;99.90;;;;;;5035427;28;20025;-53
2023/11/03 02:48:33;;;;;;;2.43;0.50;;;10.20;99.90;;;;;;5018100;28;20061;-54
2023/11/03 02:51:00;;;;;;;0.90;0.30;;;10.30;99.90;;;;;;5017788;28;20021;-55
2023/11/03 02:53:26;;;;;;;2.70;0.43;;;10.20;99.90;;;;;;5035336;28;20490;-53
2023/11/03 02:55:52;;;;;;;1.27;0.30;;;10.20;99.90;;;;;;5017457;28;20159;-55
2023/11/03 02:58:19;;;;;;;0.77;0.30;;;10.20;99.90;;;;;;5018034;28;20044;-54
2023/11/03 03:00:45;;;;;;;3.30;0.40;;;10.30;99.90;;;;;;5016962;28;20037;-54
2023/11/03 03:03:11;;;;;;;1.93;0.50;;;10.30;99.90;;;;;;5034861;28;20060;-52
2023/11/03 03:05:37;;;;;;;4.67;0.60;;;10.20;99.90;;;;;;5017479;28;20084;-53
2023/11/03 03:08:03;;;;;;;3.93;0.40;;;10.20;99.90;;;;;;5017544;28;20033;-54
2023/11/03 03:10:33;;;;;;;1.17;0.40;;;10.20;99.90;;;;;;5035189;28;20030;-52
2023/11/03 03:12:58;;;;;;;1.85;0.17;;;10.20;99.90;;;;;;5034369;28;20064;-53
2023/11/03 03:15:24;;;;;;;0.43;0.20;;;10.20;99.90;;;;;;5017370;28;20069;-54
2023/11/03 03:17:50;;;;;;;0.80;0.37;;;10.20;99.90;;;;;;5034975;28;20087;-52
2023/11/03 03:20:17;;;;;;;1.47;0.50;;;10.20;99.90;;;;;;5034849;28;20079;-54
2023/11/03 03:22:42;;;;;;;0.50;0.50;;;10.20;99.90;;;;;;5017229;28;20048;-55
2023/11/03 03:25:08;;;;;;;2.10;0.47;;;10.20;99.90;;;;;;5016936;28;20029;-55
2023/11/03 03:27:34;;;;;;;1.10;0.23;;;10.20;99.90;;;;;;5016685;28;20081;-54
2023/11/03 03:30:00;;;;;;;0.67;0.33;;;10.20;99.90;;;;;;5016840;28;20123;-54
2023/11/03 03:32:26;;;;;;;1.27;0.60;;;10.20;99.90;;;;;;5017481;28;20033;-55
2023/11/03 03:34:52;;;;;;;0.77;0.30;;;10.20;99.90;;;;;;5034904;28;20030;-52
2023/11/03 03:37:17;;;;;;;2.37;0.43;;;10.10;99.90;;;;;;5034950;28;20033;-51
2023/11/03 03:39:44;;;;;;;0.70;0.27;;;10.10;99.90;;;;;;5034419;28;20032;-54
2023/11/03 03:42:10;;;;;;;2.27;0.40;;;10.10;99.90;;;;;;5017567;28;20343;-55
2023/11/03 03:44:41;;;;;;;2.83;0.93;;;10.10;99.90;;;;;;5034684;28;20029;-53
2023/11/03 03:47:08;;;;;;;1.07;0.20;;;10.10;99.90;;;;;;5034740;28;20037;-54
2023/11/03 03:49:35;;;;;;;1.00;0.30;;;10.00;99.90;;;;;;5016338;28;20025;-56
2023/11/03 03:52:01;;;;;;;2.70;0.80;;;10.00;99.90;;;;;;5034319;28;20029;-55
2023/11/03 03:54:27;;;;;;;1.43;0.40;;;10.00;99.90;;;;;;5016783;28;20052;-50
2023/11/03 03:56:53;;;;;;;1.63;0.30;;;10.00;99.90;;;;;;5017997;28;20022;-51
2023/11/03 03:59:19;;;;;;;0.93;0.60;;;10.00;99.90;;;;;;5018314;28;20433;-51
2023/11/03 04:01:45;;;;;;;2.27;0.40;;;10.00;99.90;;;;;;5017575;28;20061;-50
2023/11/03 04:04:11;;;;;;;3.87;0.57;;;10.00;99.90;;;;;;5035170;28;20079;-51
2023/11/03 04:06:37;;;;;;;3.47;0.47;;;9.90;99.90;;;;;;5035291;28;20030;-51
2023/11/03 04:09:03;;;;;;;1.77;0.50;;;9.90;99.90;;;;;;5035366;28;20072;-53
2023/11/03 04:11:29;;;;;;;1.33;0.40;;;9.90;99.90;;;;;;5036787;28;20017;-53
2023/11/03 04:13:54;;;;;;;1.53;0.50;;;9.90;99.90;;;;;;5039446;28;20382;-55
2023/11/03 04:16:21;;;;;;;2.33;0.53;;;9.80;99.90;;;;;;5039202;28;20033;-50
2023/11/03 04:18:47;;;;;;;2.10;0.60;;;9.80;99.90;;;;;;5038944;28;20025;-55
2023/11/03 04:21:12;;;;;;;2.43;0.60;;;9.80;99.90;;;;;;5038830;28;20033;-54
2023/11/03 04:23:38;;;;;;;4.87;1.07;;;9.80;99.90;;;;;;5038488;28;20386;-53
2023/11/03 04:26:04;;;;;;;1.73;0.50;;;9.80;99.90;;;;;;5039026;28;20558;-52
2023/11/03 04:28:29;;;;;;;3.60;0.87;;;9.80;99.90;;;;;;5038821;28;20040;-52
2023/11/03 04:30:55;;;;;;;2.33;0.50;;;9.80;99.90;;;;;;5038616;28;20104;-53
2023/11/03 04:33:21;;;;;;;1.67;0.93;;;9.80;99.90;;;;;;5039209;28;20029;-54
2023/11/03 04:35:47;;;;;;;2.13;0.47;;;9.70;99.90;;;;;;5038619;28;20040;-54
2023/11/03 04:38:13;;;;;;;4.00;0.67;;;9.70;99.90;;;;;;5038894;28;20044;-52
2023/11/03 04:40:38;;;;;;;1.77;0.57;;;9.70;99.90;;;;;;5020397;28;20513;-53
2023/11/03 04:43:04;;;;;;;1.83;0.60;;;9.70;99.90;;;;;;5038741;28;20039;-53
2023/11/03 04:45:30;;;;;;;2.40;0.30;;;9.70;99.90;;;;;;5038241;28;20044;-55
2023/11/03 04:47:55;;;;;;;3.03;0.73;;;9.70;99.90;;;;;;5038285;28;20033;-53
2023/11/03 04:50:21;;;;;;;2.97;0.60;;;9.70;99.90;;;;;;5004168;28;20474;-50
2023/11/03 04:52:47;;;;;;;3.73;0.60;;;9.80;99.90;;;;;;5038737;28;20022;-51
2023/11/03 04:55:12;;;;;;;6.57;0.93;;;9.70;99.90;;;;;;5038338;28;20026;-50
2023/11/03 04:57:39;;;;;;;1.93;0.63;;;9.70;99.90;;;;;;5020376;28;20383;-52
2023/11/03 05:00:09;;;;;;;3.17;0.70;;;9.70;99.90;;;;;;5037818;28;20060;-54
2023/11/03 05:02:36;;;;;;;3.37;0.77;;;9.70;99.90;;;;;;5038017;28;20037;-55
2023/11/03 05:05:04;;;;;;;2.60;1.00;;;9.70;99.90;;;;;;5019917;28;20039;-53
2023/11/03 05:07:37;;;;;;;7.10;0.52;;;9.80;99.90;;;;;;5036919;28;20056;-53
2023/11/03 05:10:05;;;;;;;3.80;0.60;;;9.80;99.90;;;;;;5037366;28;20029;-54
2023/11/03 05:12:30;;;;;;;3.37;0.60;;;9.80;99.90;;;;;;5018763;28;20037;-53
2023/11/03 05:14:56;;;;;;;4.67;0.67;;;9.80;99.90;;;;;;5036960;28;20046;-53
2023/11/03 05:17:22;;;;;;;3.60;0.60;;;9.80;99.90;;;;;;5036848;28;20026;-53
2023/11/03 05:19:48;;;;;;;7.60;0.83;;;9.80;99.90;;;;;;5036995;28;20029;-55
2023/11/03 05:22:15;;;;;;;7.77;1.10;;;9.80;99.90;;;;;;5036611;28;20033;-56
2023/11/03 05:24:43;;;;;;;2.83;0.80;;;9.80;99.90;;;;;;5037293;28;20078;-55
2023/11/03 05:27:09;;;;;;;3.13;0.80;;;9.80;99.90;;;;;;5037249;28;20148;-54
2023/11/03 05:29:35;;;;;;;4.70;0.90;;;9.80;99.90;;;;;;5037045;28;20049;-54
2023/11/03 05:32:02;;;;;;;8.33;1.70;;;9.80;99.90;;;;;;5037434;28;20479;-55
2023/11/03 05:34:27;;;;;;;6.77;1.10;;;9.80;99.90;;;;;;5036936;28;20037;-55
2023/11/03 05:36:53;;;;;;;3.90;0.60;;;9.80;99.90;;;;;;5037280;28;20029;-55
2023/11/03 05:39:19;;;;;;;3.60;0.87;;;9.80;99.90;;;;;;5036142;28;20036;-54
2023/11/03 05:41:44;;;;;;;6.03;0.70;;;9.80;99.90;;;;;;5036995;28;20038;-55
2023/11/03 05:44:10;;;;;;;2.90;1.10;;;9.90;99.90;;;;;;5018703;28;20029;-54
2023/11/03 05:46:36;;;;;;;2.23;1.30;;;9.90;99.90;;;;;;5035891;28;20026;-51
2023/11/03 05:49:01;;;;;;;5.53;1.07;;;9.80;99.90;;;;;;5037629;28;20029;-55
2023/11/03 05:51:27;;;;;;;4.17;0.97;;;9.80;99.90;;;;;;5037942;28;20029;-51
2023/11/03 05:53:53;;;;;;;3.97;0.53;;;9.80;99.90;;;;;;5037337;28;20064;-50
2023/11/03 05:56:18;;;;;;;4.23;0.77;;;9.70;99.90;;;;;;5037156;28;20085;-51
2023/11/03 05:58:44;;;;;;;4.60;1.80;;;9.70;99.90;;;;;;5036900;28;20550;-53
2023/11/03 06:01:09;;;;;;;6.73;1.80;;;9.70;99.90;;;;;;5019927;28;20041;-52
2023/11/03 06:03:35;;;;;;;3.57;0.77;;;9.80;99.90;;;;;;5037085;28;20048;-53
2023/11/03 06:06:02;;;;;;;4.47;0.90;;;9.80;99.90;;;;;;5036904;28;20040;-50
2023/11/03 06:08:28;;;;;;;5.83;0.80;;;9.80;99.90;;;;;;5037727;28;20093;-50
2023/11/03 06:10:54;;;;;;;1.97;0.60;;;9.80;99.90;;;;;;5037222;28;20065;-51
2023/11/03 06:13:20;;;;;;;5.80;0.93;;;9.80;99.90;;;;;;5037404;28;20121;-53
2023/11/03 06:15:46;;;;;;;1.80;0.60;;;9.80;99.90;;;;;;5036703;28;20076;-54
2023/11/03 06:18:11;;;;;;;4.00;0.60;;;9.80;99.90;;;;;;5037509;28;20032;-53
2023/11/03 06:20:38;;;;;;;3.17;0.73;;;9.80;99.90;;;;;;5036802;28;20378;-53
2023/11/03 06:23:04;;;;;;;4.23;0.67;;;9.80;99.90;;;;;;5037496;28;20044;-53
2023/11/03 06:25:29;;;;;;;4.37;0.70;;;9.80;99.90;;;;;;5036907;28;20030;-52
2023/11/03 06:27:55;;;;;;;7.13;1.30;;;9.80;99.90;;;;;;5036704;28;20459;-50
2023/11/03 06:30:21;;;;;;;5.63;1.03;;;9.80;99.90;;;;;;5019120;28;20025;-52
2023/11/03 06:32:47;;;;;;;2.13;0.50;;;9.80;99.90;;;;;;5037308;28;20076;-52
2023/11/03 06:35:13;;;;;;;5.43;0.67;;;9.80;99.90;;;;;;5036851;28;20513;-51
2023/11/03 06:37:39;;;;;;;4.50;1.63;;;9.80;99.90;;;;;;5036953;28;20026;-50
2023/11/03 06:40:10;;;;;;;3.43;0.57;;;9.80;99.90;;;;;;5036812;28;20030;-50
2023/11/03 06:42:39;;;;;;;4.93;1.03;;;9.80;99.90;;;;;;5037916;28;20037;-52
2023/11/03 06:45:08;;;;;;;;;;;9.80;99.90;;;;;;5037992;28;20554;-53
2023/11/03 06:47:37;;;;;;;4.30;0.82;;;9.80;99.90;;;;;;5036521;28;20389;-53
2023/11/03 06:50:03;;;;;;;2.10;0.63;;;9.80;99.90;;;;;;5036822;28;20096;-51
2023/11/03 06:52:29;;;;;;;5.80;0.70;;;9.90;99.90;;;;;;5036616;28;20038;-54
2023/11/03 06:54:56;;;;;;;2.27;0.60;;;9.90;99.90;;;;;;5036271;28;20047;-50
2023/11/03 06:57:22;;;;;;;3.60;0.77;;;9.90;99.90;;;;;;5036620;28;20030;-54
2023/11/03 06:59:48;;;;;;;3.33;0.97;;;9.90;99.90;;;;;;5036573;28;20213;-52
2023/11/03 07:02:14;;;;;;;3.90;0.87;;;10.00;99.90;;;;;;5036735;28;20398;-54
2023/11/03 07:04:40;;;;;;;2.77;0.83;;;10.10;99.90;;;;;;5036658;28;20033;-51
2023/11/03 07:07:06;;;;;;;5.47;0.83;;;10.10;99.90;;;;;;5018369;28;20117;-51
2023/11/03 07:09:32;;;;;;;2.07;0.70;;;10.10;99.90;;;;;;5036023;28;20509;-54
2023/11/03 07:11:57;;;;;;;4.37;0.60;;;10.20;99.90;;;;;;5036521;28;20044;-54
2023/11/03 07:14:24;;;;;;;4.77;0.80;;;10.30;99.90;;;;;;5018552;28;20044;-51
2023/11/03 07:16:53;;;;;;;3.80;0.70;;;10.30;99.90;;;;;;5035812;28;20398;-50
2023/11/03 07:19:19;;;;;;;2.80;0.60;;;10.30;99.90;;;;;;5036484;28;20029;-54
2023/11/03 07:21:52;;;;;;;1.80;0.60;;;10.40;99.90;;;;;;5035871;28;20033;-55
2023/11/03 07:24:21;;;;;;;2.77;0.50;;;10.40;99.90;;;;;;5035686;28;20032;-54
2023/11/03 07:26:50;;;;;;;4.05;0.60;;;10.50;99.90;;;;;;5035628;28;20115;-55
2023/11/03 07:29:16;;;;;;;10.23;3.42;;;10.50;99.90;;;;;;5035897;28;20111;-49
2023/11/03 07:31:42;;;;;;;4.67;1.27;;;10.50;99.90;;;;;;5035740;28;20026;-52
2023/11/03 07:34:08;;;;;;;13.20;4.93;;;10.60;99.90;;;;;;5035548;28;20190;-52
2023/11/03 07:36:34;;;;;;;6.53;1.43;;;10.60;99.90;;;;;;5034969;28;20022;-50
2023/11/03 07:39:01;;;;;;;5.07;0.70;;;10.70;99.90;;;;;;5035147;28;20570;-52
2023/11/03 07:41:26;;;;;;;3.23;0.97;;;10.60;99.90;;;;;;5035383;28;20041;-54
2023/11/03 07:43:52;;;;;;;5.60;0.90;;;10.60;99.90;;;;;;5034698;28;20048;-53
2023/11/03 07:46:21;;;;;;;2.60;0.80;;;10.60;99.90;;;;;;5035880;28;20073;-53
2023/11/03 07:48:47;;;;;;;3.63;0.70;;;10.60;99.90;;;;;;5038760;28;20075;-52
2023/11/03 07:51:13;;;;;;;2.53;1.23;;;10.70;99.90;;;;;;5038620;28;20112;-51
2023/11/03 07:53:39;;;;;;;2.20;0.53;;;10.70;99.90;;;;;;5038815;28;20029;-54
2023/11/03 07:56:05;;;;;;;2.30;0.70;;;10.80;99.90;;;;;;5021388;28;20045;-52
2023/11/03 07:58:31;;;;;;;6.30;0.90;;;10.80;99.90;;;;;;5038346;28;20033;-53
2023/11/03 08:00:57;;;;;;;6.53;1.77;;;10.80;99.90;;;;;;5038788;28;20045;-52
2023/11/03 08:03:27;;;;;;;2.60;1.00;;;10.80;99.90;;;;;;5039025;28;20030;-52
2023/11/03 08:05:53;;;;;;;3.27;0.90;;;10.90;99.90;;;;;;5039347;28;20041;-52
2023/11/03 08:08:20;;;;;;;3.30;1.20;;;11.00;99.90;;;;;;5039894;28;20136;-50
2023/11/03 08:10:46;;;;;;;6.50;1.10;;;11.00;99.90;;;;;;5021903;28;20404;-52
2023/11/03 08:13:12;;;;;;;4.57;1.20;;;11.00;99.90;;;;;;5006507;28;20037;-51
2023/11/03 08:15:37;;;;;;;6.80;1.07;;;11.00;99.90;;;;;;5022054;28;20034;-52
2023/11/03 08:18:05;;;;;;;4.23;1.00;;;11.00;99.90;;;;;;5040046;28;20104;-53
2023/11/03 08:20:31;;;;;;;3.60;1.07;;;11.10;99.90;;;;;;5039439;28;20034;-52
2023/11/03 08:22:58;;;;;;;4.00;1.10;;;11.00;99.90;;;;;;5038680;28;20099;-55
2023/11/03 08:25:26;;;;;;;1.50;0.40;;;11.00;99.90;;;;;;5038843;28;20075;-51
2023/11/03 08:27:52;;;;;;;4.20;0.83;;;11.10;99.90;;;;;;5039055;28;20045;-51
2023/11/03 08:30:18;;;;;;;4.93;0.73;;;11.10;99.90;;;;;;5039261;28;20533;-53
2023/11/03 08:32:46;;;;;;;4.70;0.87;;;11.10;99.90;;;;;;5039897;28;20077;-51
2023/11/03 08:35:12;;;;;;;6.37;0.80;;;10.90;99.90;;;;;;5039834;28;20041;-52
2023/11/03 08:37:42;;;;;;;4.03;0.80;;;10.90;99.90;;;;;;5022147;28;20508;-51
2023/11/03 08:40:09;;;;;;;2.57;0.40;;;11.00;99.90;;;;;;5021106;28;20498;-52
2023/11/03 08:42:34;;;;;;;2.90;0.70;;;11.00;99.90;;;;;;5021289;28;20052;-51
2023/11/03 08:45:00;;;;;;;1.53;0.70;;;10.90;99.90;;;;;;5038411;28;20030;-50
2023/11/03 08:47:26;;;;;;;2.37;0.63;;;10.90;99.90;;;;;;5038661;28;20049;-51
2023/11/03 08:49:52;;;;;;;0.97;0.63;;;10.90;99.90;;;;;;5038914;28;20029;-52
2023/11/03 08:52:18;;;;;;;6.33;0.80;;;10.90;99.90;;;;;;5039028;28;20032;-54
2023/11/03 08:54:44;;;;;;;4.60;0.70;;;10.90;99.90;;;;;;5038353;28;20160;-52
2023/11/03 08:57:09;;;;;;;4.43;0.70;;;10.90;99.90;;;;;;5038556;28;20048;-50
2023/11/03 08:59:36;;;;;;;4.97;0.97;;;11.00;99.90;;;;;;5038725;28;20038;-53
2023/11/03 09:02:03;;;;;;;3.63;1.03;;;11.20;99.90;;;;;;5021442;28;20029;-51
2023/11/03 09:04:28;;;;;;;2.90;0.73;;;11.20;99.90;;;;;;5038423;28;20029;-51
2023/11/03 09:06:54;;;;;;;3.13;0.53;;;11.30;99.90;;;;;;5038255;28;20092;-51
2023/11/03 09:09:21;;;;;;;3.00;0.67;;;11.30;99.90;;;;;;5038558;28;20041;-52
2023/11/03 09:11:46;;;;;;;4.47;0.80;;;11.30;99.90;;;;;;5038713;28;20026;-51
2023/11/03 09:14:12;;;;;;;6.57;1.43;;;11.30;99.90;;;;;;5038750;28;20072;-53
2023/11/03 09:16:38;;;;;;;2.33;0.80;;;11.30;99.90;;;;;;5038704;28;20029;-52
2023/11/03 09:19:03;;;;;;;3.77;0.70;;;11.20;99.90;;;;;;5038725;28;20040;-50
2023/11/03 09:21:29;;;;;;;6.80;0.70;;;11.20;99.90;;;;;;5021075;28;20093;-53
2023/11/03 09:23:55;;;;;;;2.83;0.80;;;11.10;99.90;;;;;;5037964;28;20029;-50
2023/11/03 09:26:21;;;;;;;4.20;1.00;;;11.10;99.90;;;;;;5039026;28;20072;-54
2023/11/03 09:28:50;;;;;;;4.00;0.77;;;11.20;99.90;;;;;;5038542;28;20076;-50
2023/11/03 09:31:15;;;;;;;5.50;1.98;;;11.20;99.90;;;;;;5020792;28;20037;-50
2023/11/03 09:33:42;;;;;;;5.43;1.10;;;11.20;99.90;;;;;;5038435;28;20064;-53
2023/11/03 09:36:09;;;;;;;5.40;0.90;;;11.10;99.90;;;;;;5038271;28;20034;-50
2023/11/03 09:38:35;;;;;;;6.23;0.70;;;11.10;99.90;;;;;;5020595;28;20187;-49
2023/11/03 09:41:01;;;;;;;5.30;0.90;;;11.10;99.90;;;;;;5038123;28;20033;-51
2023/11/03 09:43:29;;;;;;;8.83;1.00;;;11.10;99.90;;;;;;5038855;28;20029;-49
2023/11/03 09:45:55;;;;;;;5.47;0.70;;;11.10;99.90;;;;;;5037963;28;20033;-50
2023/11/03 09:48:22;;;;;;;2.10;0.60;;;11.00;99.90;;;;;;5038509;28;20075;-49
2023/11/03 09:50:48;;;;;;;5.83;0.80;;;11.10;99.90;;;;;;5038366;28;20025;-51
2023/11/03 09:53:25;;;;;;;2.83;0.60;;;11.10;99.90;;;;;;5038548;28;20029;-50
2023/11/03 09:55:51;;;;;;;3.40;1.00;;;11.20;99.90;;;;;;5037721;28;20095;-49
2023/11/03 09:58:17;;;;;;;3.63;1.27;;;11.10;99.90;;;;;;5038454;28;20056;-50
2023/11/03 10:00:44;;;;;;;3.50;0.70;;;11.00;99.90;;;;;;5038652;28;20426;-50
2023/11/03 10:03:09;;;;;;;6.27;1.23;;;11.00;99.90;;;;;;5038826;28;20041;-52
2023/11/03 10:05:36;;;;;;;2.50;0.73;;;11.00;99.90;;;;;;5038068;28;20041;-50
2023/11/03 10:08:05;;;;;;;6.90;0.90;;;11.00;99.90;;;;;;5037351;28;20042;-49
2023/11/03 10:10:35;;;;;;;1.75;0.47;;;10.90;99.90;;;;;;5037657;28;20034;-50
2023/11/03 10:13:09;;;;;;;4.40;0.93;;;10.90;99.90;;;;;;5037767;28;20371;-50
2023/11/03 10:15:39;;;;;;;2.27;1.17;;;10.90;99.90;;;;;;5037893;28;20037;-50
2023/11/03 10:18:05;;;;;;;5.07;0.83;;;10.90;99.90;;;;;;5037501;28;20033;-49
2023/11/03 10:20:31;;;;;;;3.23;0.70;;;10.90;99.90;;;;;;5037715;28;20063;-53
2023/11/03 10:22:57;;;;;;;6.07;0.70;;;10.90;99.90;;;;;;5037988;28;20037;-53
2023/11/03 10:25:26;;;;;;;3.60;0.50;;;10.90;99.90;;;;;;5037347;28;20087;-52
2023/11/03 10:27:56;;;;;;;5.85;0.63;;;11.00;99.90;;;;;;5036781;28;20524;-49
2023/11/03 10:30:26;;;;;;;3.67;0.80;;;11.10;99.90;;;;;;5036894;28;20056;-51
2023/11/03 10:32:53;;;;;;;2.97;0.80;;;11.20;99.90;;;;;;5037438;28;20462;-52
2023/11/03 10:35:19;;;;;;;3.70;0.70;;;11.20;99.90;;;;;;5036224;28;20478;-54
2023/11/03 10:37:46;;;;;;;3.73;0.80;;;11.30;99.90;;;;;;5035786;28;20104;-53
2023/11/03 10:40:15;;;;;;;3.37;0.93;;;11.40;99.90;;;;;;5035777;28;20112;-51
2023/11/03 10:42:47;;;;;;;;;;;11.40;99.90;;;;;;5036667;28;20033;-55
2023/11/03 10:45:15;;;;;;;6.40;0.83;;;11.50;99.90;;;;;;5035785;28;19920;-54
2023/11/03 10:48:05;;;;;;;6.50;1.00;;;11.60;99.90;;;;;;5035762;28;20508;-55
2023/11/03 10:50:36;;;;;;;4.37;0.70;;;11.90;99.90;;;;;;5036127;28;20036;-55
2023/11/03 10:53:12;;;;;;;7.73;0.70;;;12.20;99.90;;;;;;5036043;28;20021;-52
2023/11/03 10:55:45;;;;;;;6.50;0.80;;;12.40;99.90;;;;;;5036239;28;20037;-54
2023/11/03 10:58:11;;;;;;;2.33;0.83;;;12.50;99.90;;;;;;5035929;28;20535;-54
2023/11/03 11:00:50;;;;;;;5.23;0.80;;;12.60;99.90;;;;;;5036165;28;20038;-55
2023/11/03 11:03:29;;;;;;;6.00;0.93;;;12.70;99.90;;;;;;5017706;28;20394;-52
2023/11/03 11:06:17;;;;;;;7.75;1.08;;;12.80;99.90;;;;;;5035902;28;20029;-54
2023/11/03 11:08:46;;;;;;;4.13;0.70;;;12.90;99.90;;;;;;5035859;28;20022;-54
2023/11/03 11:11:12;;;;;;;6.03;0.75;;;13.10;99.90;;;;;;5036580;28;20034;-52
2023/11/03 11:13:43;;;;;;;5.15;1.25;;;13.50;99.90;;;;;;5036257;28;20037;-51
2023/11/03 11:16:12;;;;;;;5.50;1.08;;;13.80;99.90;;;;;;5017632;28;20029;-54
2023/11/03 11:19:10;;;;;;;2.13;0.65;;;14.00;99.90;;;;;;5035385;28;20032;-51
2023/11/03 11:21:41;;;;;;;4.28;0.80;;;14.30;99.90;;;;;;5038937;28;20064;-50
2023/11/03 11:24:07;;;;;;;8.65;1.45;;;14.40;99.90;;;;;;5040053;28;20041;-51
2023/11/03 11:26:32;;;;;;;3.20;0.80;;;14.40;99.90;;;;;;5039539;28;20129;-51
2023/11/03 11:29:00;;;;;;;4.18;0.90;;;14.20;99.90;;;;;;5021980;28;20033;-53
2023/11/03 11:31:25;;;;;;;2.08;0.73;;;14.20;99.90;;;;;;5039994;28;20033;-52
2023/11/03 11:34:15;;;;;;;4.90;1.27;;;14.60;99.90;;;;;;5040027;28;20025;-53
2023/11/03 11:36:41;;;;;;;7.07;0.98;;;15.00;99.90;;;;;;5040125;28;20051;-52
2023/11/03 11:39:13;;;;;;;5.43;1.00;;;15.30;99.90;;;;;;5039676;28;20036;-52
2023/11/03 11:41:55;;;;;;;6.05;1.20;;;15.70;99.90;;;;;;5039876;28;20093;-52
2023/11/03 11:44:23;;;;;;;2.40;0.60;;;16.00;99.90;;;;;;5039063;28;20458;-52
2023/11/03 11:46:54;;;;;;;1.83;0.60;;;16.30;99.90;;;;;;5039632;28;20104;-53
2023/11/03 11:49:22;;;;;;;5.03;0.93;;;16.40;99.90;;;;;;5038721;28;20487;-54
2023/11/03 11:51:51;;;;;;;2.38;0.70;;;16.20;99.90;;;;;;5021357;28;20479;-51
2023/11/03 11:54:18;;;;;;;7.57;1.55;;;16.20;99.90;;;;;;5039008;28;20038;-53
2023/11/03 11:56:45;;;;;;;4.65;0.90;;;15.90;99.90;;;;;;5021159;28;20033;-50
2023/11/03 11:59:15;;;;;;;6.38;1.27;;;15.60;99.90;;;;;;5039265;28;20033;-52
2023/11/03 12:01:41;;;;;;;2.70;0.80;;;15.20;99.90;;;;;;5039026;28;20037;-49
2023/11/03 12:04:07;;;;;;;2.95;0.70;;;14.90;99.90;;;;;;5020579;28;20033;-54
2023/11/03 12:06:33;;;;;;;4.80;0.70;;;14.70;99.90;;;;;;5038488;28;20064;-53
2023/11/03 12:08:59;;;;;;;2.95;0.88;;;14.80;99.90;;;;;;5003927;28;20033;-54
2023/11/03 12:11:25;;;;;;;9.30;1.88;;;14.70;99.90;;;;;;5038490;28;20098;-52
2023/11/03 12:13:52;;;;;;;4.30;0.93;;;14.40;99.90;;;;;;5038366;28;20036;-53
2023/11/03 12:16:19;;;;;;;5.63;1.60;;;14.00;99.90;;;;;;5038667;28;20033;-52
2023/11/03 12:18:45;;;;;;;5.80;1.20;;;14.00;99.90;;;;;;5038635;28;20135;-52
2023/11/03 12:21:10;;;;;;;6.60;1.55;;;13.80;99.90;;;;;;5038923;28;20037;-51
2023/11/03 12:23:39;;;;;;;4.25;1.38;;;13.90;99.90;;;;;;5039426;28;20037;-50
2023/11/03 12:26:07;;;;;;;5.82;0.90;;;14.00;99.90;;;;;;5038751;28;20037;-53
2023/11/03 12:28:33;;;;;;;5.85;0.90;;;13.70;99.90;;;;;;5038739;28;20445;-50
2023/11/03 12:30:59;;;;;;;6.10;1.42;;;13.70;99.90;;;;;;5020824;28;20065;-53
2023/11/03 12:33:28;;;;;;;6.80;1.98;;;13.90;99.90;;;;;;5037604;28;20120;-51
2023/11/03 12:35:57;;;;;;;4.75;1.27;;;13.90;99.90;;;;;;5039389;28;20030;-53
2023/11/03 12:38:23;;;;;;;6.80;1.40;;;13.80;99.90;;;;;;5039405;28;20033;-50
2023/11/03 12:40:50;;;;;;;6.82;1.27;;;13.70;99.90;;;;;;5021595;28;20036;-49
2023/11/03 12:43:18;;;;;;;3.72;0.70;;;13.80;99.90;;;;;;5039435;28;20061;-50
2023/11/03 12:45:44;;;;;;;3.53;1.03;;;13.80;99.90;;;;;;5039385;28;20029;-52
2023/11/03 12:48:20;;;;;;;5.25;1.70;;;14.20;99.90;;;;;;5040351;28;20479;-50
2023/11/03 12:50:55;;;;;;;8.93;1.70;;;14.60;99.90;;;;;;5039421;28;20029;-50